createdAt,value
2018-04-19T00:01:01.027Z,10.8
2018-04-19T00:02:07.961Z,10.8
2018-04-19T00:03:15.381Z,10.8
2018-04-19T00:04:22.307Z,10.7
2018-04-19T00:05:29.528Z,10.7
2018-04-19T00:06:36.763Z,10.7
2018-04-19T00:07:43.968Z,10.7
2018-04-19T00:08:51.180Z,10.6
2018-04-19T00:09:58.397Z,10.6
2018-04-19T00:11:05.609Z,10.6
2018-04-19T00:12:12.539Z,10.6
2018-04-19T00:13:19.750Z,10.6
2018-04-19T00:14:26.954Z,10.5
2018-04-19T00:15:34.178Z,10.5
2018-04-19T00:16:41.383Z,10.5
2018-04-19T00:17:48.595Z,10.5
2018-04-19T00:18:55.805Z,10.5
2018-04-19T00:20:03.013Z,10.4
2018-04-19T00:21:09.939Z,10.5
2018-04-19T00:22:17.157Z,10.4
2018-04-19T00:23:24.370Z,10.4
2018-04-19T00:24:31.580Z,10.4
2018-04-19T00:25:38.787Z,10.4
2018-04-19T00:26:45.990Z,10.4
2018-04-19T00:27:53.197Z,10.3
2018-04-19T00:29:00.402Z,10.3
2018-04-19T00:30:07.841Z,10.3
2018-04-19T00:31:15.043Z,10.2
2018-04-19T00:32:22.253Z,10.2
2018-04-19T00:33:29.456Z,10.2
2018-04-19T00:34:36.663Z,10.2
2018-04-19T00:35:43.870Z,10.2
2018-04-19T00:36:51.080Z,10.3
2018-04-19T00:37:58.288Z,10.3
2018-04-19T00:39:05.530Z,10.3
2018-04-19T00:40:12.193Z,10.3
2018-04-19T00:41:19.415Z,10.3
2018-04-19T00:42:26.622Z,10.3
2018-04-19T00:43:33.849Z,10.3
2018-04-19T00:44:41.055Z,10.2
2018-04-19T00:45:48.284Z,10.3
2018-04-19T00:46:55.495Z,10.3
2018-04-19T00:48:02.712Z,10.3
2018-04-19T00:49:09.644Z,10.2
2018-04-19T00:50:16.853Z,10.2
2018-04-19T00:51:24.071Z,10.2
2018-04-19T00:52:31.267Z,10.1
2018-04-19T00:53:38.200Z,10.1
2018-04-19T00:54:45.408Z,10
2018-04-19T00:55:52.607Z,10.1
2018-04-19T00:56:59.809Z,10
2018-04-19T00:58:07.011Z,10
2018-04-19T00:59:14.219Z,10
2018-04-19T01:00:21.427Z,10
2018-04-19T01:01:28.640Z,9.9
2018-04-19T01:02:35.852Z,9.8
2018-04-19T01:03:43.056Z,9.8
2018-04-19T01:04:50.268Z,9.8
2018-04-19T01:05:57.477Z,9.9
2018-04-19T01:07:05.012Z,9.8
2018-04-19T01:08:12.375Z,9.8
2018-04-19T01:09:19.587Z,9.8
2018-04-19T01:10:26.512Z,9.8
2018-04-19T01:11:33.724Z,9.7
2018-04-19T01:12:40.922Z,9.7
2018-04-19T01:13:48.144Z,9.7
2018-04-19T01:14:55.353Z,9.7
2018-04-19T01:16:02.569Z,9.7
2018-04-19T01:17:09.783Z,9.7
2018-04-19T01:18:16.736Z,9.7
2018-04-19T01:19:23.942Z,9.6
2018-04-19T01:20:31.144Z,9.7
2018-04-19T01:21:38.362Z,9.6
2018-04-19T01:22:45.570Z,9.6
2018-04-19T01:23:52.780Z,9.6
2018-04-19T01:25:00.000Z,9.6
2018-04-19T01:26:07.213Z,9.6
2018-04-19T01:27:14.421Z,9.6
2018-04-19T01:28:21.639Z,9.5
2018-04-19T01:29:28.856Z,9.4
2018-04-19T01:30:36.062Z,9.4
2018-04-19T01:31:43.005Z,9.5
2018-04-19T01:32:50.210Z,9.5
2018-04-19T01:33:57.426Z,9.4
2018-04-19T01:35:04.618Z,9.5
2018-04-19T01:36:11.549Z,9.5
2018-04-19T01:37:18.485Z,9.5
2018-04-19T01:38:25.700Z,9.4
2018-04-19T01:39:32.619Z,9.4
2018-04-19T01:40:39.829Z,9.4
2018-04-19T01:41:47.039Z,9.4
2018-04-19T01:42:54.486Z,9.4
2018-04-19T01:44:01.702Z,9.4
2018-04-19T01:45:09.138Z,9.4
2018-04-19T01:46:16.373Z,9.4
2018-04-19T01:47:23.576Z,9.5
2018-04-19T01:48:30.787Z,9.4
2018-04-19T01:49:37.989Z,9.4
2018-04-19T01:50:44.924Z,9.4
2018-04-19T01:51:51.866Z,9.4
2018-04-19T01:52:59.070Z,9.4
2018-04-19T01:54:06.272Z,9.4
2018-04-19T01:55:13.483Z,9.4
2018-04-19T01:56:20.705Z,9.4
2018-04-19T01:57:27.913Z,9.3
2018-04-19T01:58:35.111Z,9.3
2018-04-19T01:59:42.077Z,9.3
2018-04-19T02:00:49.282Z,9.3
2018-04-19T02:01:56.498Z,9.3
2018-04-19T02:03:03.147Z,9.3
2018-04-19T02:04:10.356Z,9.3
2018-04-19T02:05:31.660Z,9.2
2018-04-19T02:06:38.317Z,9.2
2018-04-19T02:07:45.537Z,9.2
2018-04-19T02:08:52.470Z,9.2
2018-04-19T02:09:59.859Z,9.2
2018-04-19T02:11:07.071Z,9.2
2018-04-19T02:12:14.274Z,9.2
2018-04-19T02:13:21.202Z,9.2
2018-04-19T02:14:27.577Z,9.2
2018-04-19T02:15:34.792Z,9.1
2018-04-19T02:16:42.006Z,9.1
2018-04-19T02:17:49.224Z,9.1
2018-04-19T02:18:56.152Z,9.1
2018-04-19T02:20:03.363Z,9.1
2018-04-19T02:21:10.571Z,9.1
2018-04-19T02:22:17.805Z,9
2018-04-19T02:23:25.015Z,9.1
2018-04-19T02:24:32.217Z,9.1
2018-04-19T02:25:39.144Z,9
2018-04-19T02:26:46.089Z,9
2018-04-19T02:27:53.295Z,9
2018-04-19T02:29:00.295Z,9
2018-04-19T02:30:07.506Z,9
2018-04-19T02:31:14.729Z,9
2018-04-19T02:32:21.946Z,9
2018-04-19T02:33:29.157Z,9
2018-04-19T02:34:36.097Z,9
2018-04-19T02:35:43.351Z,8.9
2018-04-19T02:36:50.611Z,8.9
2018-04-19T02:37:57.825Z,8.9
2018-04-19T02:39:05.029Z,8.9
2018-04-19T02:40:12.229Z,8.9
2018-04-19T02:41:19.435Z,8.9
2018-04-19T02:42:26.636Z,8.9
2018-04-19T02:43:33.570Z,8.8
2018-04-19T02:44:40.784Z,8.8
2018-04-19T02:45:47.993Z,8.7
2018-04-19T02:46:55.226Z,8.7
2018-04-19T02:48:02.426Z,8.7
2018-04-19T02:49:09.634Z,8.6
2018-04-19T02:50:16.836Z,8.6
2018-04-19T02:51:24.048Z,8.6
2018-04-19T02:52:31.253Z,8.6
2018-04-19T02:53:38.193Z,8.6
2018-04-19T02:54:45.123Z,8.6
2018-04-19T02:55:52.333Z,8.5
2018-04-19T02:56:59.539Z,8.6
2018-04-19T02:58:06.741Z,8.6
2018-04-19T02:59:13.683Z,8.6
2018-04-19T03:00:20.893Z,8.6
2018-04-19T03:01:42.748Z,8.6
2018-04-19T03:02:49.137Z,8.6
2018-04-19T03:03:56.081Z,8.6
2018-04-19T03:05:03.293Z,8.6
2018-04-19T03:06:10.523Z,8.6
2018-04-19T03:07:17.728Z,8.6
2018-04-19T03:08:24.393Z,8.7
2018-04-19T03:09:31.315Z,8.7
2018-04-19T03:10:38.522Z,8.7
2018-04-19T03:11:45.729Z,8.7
2018-04-19T03:12:52.893Z,8.7
2018-04-19T03:13:59.550Z,8.7
2018-04-19T03:15:06.776Z,8.6
2018-04-19T03:16:13.984Z,8.7
2018-04-19T03:17:20.934Z,8.6
2018-04-19T03:18:27.919Z,8.6
2018-04-19T03:19:34.847Z,8.6
2018-04-19T03:20:42.056Z,8.6
2018-04-19T03:21:48.733Z,8.5
2018-04-19T03:22:55.946Z,8.5
2018-04-19T03:24:02.889Z,8.5
2018-04-19T03:25:09.819Z,8.5
2018-04-19T03:26:17.039Z,8.5
2018-04-19T03:27:23.972Z,8.5
2018-04-19T03:28:31.183Z,8.5
2018-04-19T03:29:38.405Z,8.5
2018-04-19T03:30:45.847Z,8.4
2018-04-19T03:31:53.046Z,8.4
2018-04-19T03:33:00.262Z,8.4
2018-04-19T03:34:07.487Z,8.4
2018-04-19T03:35:14.717Z,8.4
2018-04-19T03:36:21.918Z,8.4
2018-04-19T03:37:29.147Z,8.4
2018-04-19T03:38:36.362Z,8.4
2018-04-19T03:39:43.987Z,8.4
2018-04-19T03:40:51.204Z,8.4
2018-04-19T03:41:58.431Z,8.4
2018-04-19T03:43:05.369Z,8.4
2018-04-19T03:44:12.610Z,8.4
2018-04-19T03:45:19.798Z,8.5
2018-04-19T03:46:27.047Z,8.4
2018-04-19T03:47:34.302Z,8.4
2018-04-19T03:48:41.505Z,8.4
2018-04-19T03:49:48.743Z,8.5
2018-04-19T03:50:55.953Z,8.4
2018-04-19T03:52:03.167Z,8.4
2018-04-19T03:53:10.386Z,8.4
2018-04-19T03:54:17.602Z,8.4
2018-04-19T03:55:24.837Z,8.4
2018-04-19T03:56:31.769Z,8.4
2018-04-19T03:57:38.975Z,8.4
2018-04-19T03:58:46.179Z,8.4
2018-04-19T03:59:53.385Z,8.4
2018-04-19T04:01:00.647Z,8.4
2018-04-19T04:02:08.165Z,8.4
2018-04-19T04:03:15.407Z,8.3
2018-04-19T04:04:22.881Z,8.3
2018-04-19T04:05:30.087Z,8.3
2018-04-19T04:06:37.314Z,8.3
2018-04-19T04:07:44.238Z,8.4
2018-04-19T04:08:51.250Z,8.4
2018-04-19T04:09:58.514Z,8.4
2018-04-19T04:11:05.725Z,8.4
2018-04-19T04:12:12.652Z,8.4
2018-04-19T04:13:19.858Z,8.5
2018-04-19T04:14:27.063Z,8.4
2018-04-19T04:15:34.304Z,8.4
2018-04-19T04:16:41.507Z,8.4
2018-04-19T04:17:48.949Z,8.4
2018-04-19T04:18:56.156Z,8.4
2018-04-19T04:20:03.389Z,8.4
2018-04-19T04:21:10.595Z,8.4
2018-04-19T04:22:17.812Z,8.3
2018-04-19T04:23:25.041Z,8.3
2018-04-19T04:24:32.276Z,8.2
2018-04-19T04:25:39.485Z,8.2
2018-04-19T04:26:46.695Z,8.2
2018-04-19T04:27:53.932Z,8.2
2018-04-19T04:29:00.865Z,8.1
2018-04-19T04:30:08.085Z,8.1
2018-04-19T04:31:15.777Z,8.2
2018-04-19T04:32:23.082Z,8.1
2018-04-19T04:33:30.521Z,8.1
2018-04-19T04:34:37.450Z,8.1
2018-04-19T04:35:44.393Z,8.1
2018-04-19T04:36:51.326Z,8
2018-04-19T04:37:58.563Z,8.1
2018-04-19T04:39:05.767Z,8.1
2018-04-19T04:40:12.998Z,8.1
2018-04-19T04:41:19.924Z,8
2018-04-19T04:42:27.135Z,8
2018-04-19T04:43:34.343Z,8
2018-04-19T04:44:41.564Z,8.1
2018-04-19T04:45:48.767Z,8
2018-04-19T04:46:56.191Z,8
2018-04-19T04:48:03.420Z,8
2018-04-19T04:49:10.867Z,7.9
2018-04-19T04:50:18.095Z,7.9
2018-04-19T04:51:25.296Z,7.8
2018-04-19T04:52:32.517Z,7.9
2018-04-19T04:53:39.758Z,7.9
2018-04-19T04:54:46.963Z,7.9
2018-04-19T04:55:53.857Z,7.9
2018-04-19T04:57:01.078Z,8
2018-04-19T04:58:08.235Z,7.9
2018-04-19T04:59:15.167Z,8
2018-04-19T05:00:22.422Z,8
2018-04-19T05:01:29.631Z,8
2018-04-19T05:02:37.070Z,8
2018-04-19T05:03:44.020Z,7.9
2018-04-19T05:04:51.275Z,7.9
2018-04-19T05:05:58.209Z,7.9
2018-04-19T05:07:05.139Z,7.9
2018-04-19T05:08:12.346Z,7.9
2018-04-19T05:09:19.773Z,7.9
2018-04-19T05:10:27.002Z,8
2018-04-19T05:11:34.438Z,8
2018-04-19T05:12:41.651Z,8
2018-04-19T05:13:49.117Z,8
2018-04-19T05:14:56.352Z,8.1
2018-04-19T05:16:03.291Z,8.1
2018-04-19T05:17:10.506Z,8.2
2018-04-19T05:18:17.713Z,8.2
2018-04-19T05:19:24.916Z,8.3
2018-04-19T05:20:32.121Z,8.3
2018-04-19T05:21:39.332Z,8.3
2018-04-19T05:22:46.541Z,8.3
2018-04-19T05:23:53.471Z,8.3
2018-04-19T05:25:00.703Z,8.4
2018-04-19T05:26:07.922Z,8.5
2018-04-19T05:27:15.152Z,8.5
2018-04-19T05:28:22.355Z,8.6
2018-04-19T05:29:29.579Z,8.6
2018-04-19T05:30:36.793Z,8.6
2018-04-19T05:31:44.041Z,8.7
2018-04-19T05:32:51.099Z,8.8
2018-04-19T05:33:58.303Z,8.8
2018-04-19T05:35:05.236Z,8.9
2018-04-19T05:36:12.441Z,9
2018-04-19T05:37:19.653Z,9.1
2018-04-19T05:38:26.855Z,9.3
2018-04-19T05:39:34.069Z,9.3
2018-04-19T05:40:41.010Z,9.4
2018-04-19T05:41:48.216Z,9.4
2018-04-19T05:42:55.420Z,9.4
2018-04-19T05:44:02.365Z,9.4
2018-04-19T05:45:09.572Z,9.5
2018-04-19T05:46:16.774Z,9.5
2018-04-19T05:47:23.987Z,9.6
2018-04-19T05:48:31.201Z,9.7
2018-04-19T05:49:38.610Z,9.7
2018-04-19T05:50:45.830Z,9.8
2018-04-19T05:51:52.764Z,9.9
2018-04-19T05:52:59.980Z,9.9
2018-04-19T05:54:06.911Z,10
2018-04-19T05:55:14.118Z,10.1
2018-04-19T05:56:21.333Z,10.2
2018-04-19T05:57:28.269Z,10.3
2018-04-19T05:58:35.207Z,10.3
2018-04-19T05:59:42.417Z,10.5
2018-04-19T06:00:49.353Z,10.6
2018-04-19T06:01:56.562Z,10.8
2018-04-19T06:03:03.847Z,10.9
2018-04-19T06:04:11.116Z,10.9
2018-04-19T06:05:18.320Z,11
2018-04-19T06:06:25.577Z,11.1
2018-04-19T06:07:32.794Z,11.1
2018-04-19T06:08:40.105Z,11.2
2018-04-19T06:09:47.398Z,11.3
2018-04-19T06:10:54.602Z,11.4
2018-04-19T06:12:01.811Z,11.5
2018-04-19T06:13:09.017Z,11.5
2018-04-19T06:14:15.963Z,11.6
2018-04-19T06:15:23.178Z,11.7
2018-04-19T06:16:30.394Z,11.9
2018-04-19T06:17:37.610Z,12
2018-04-19T06:18:44.816Z,12.2
2018-04-19T06:19:52.026Z,12.3
2018-04-19T06:20:58.985Z,12.5
2018-04-19T06:22:06.184Z,12.6
2018-04-19T06:23:13.400Z,12.7
2018-04-19T06:24:20.615Z,12.9
2018-04-19T06:25:27.832Z,13.1
2018-04-19T06:26:34.898Z,13.3
2018-04-19T06:27:42.092Z,13.4
2018-04-19T06:29:03.958Z,13.6
2018-04-19T06:30:11.187Z,13.7
2018-04-19T06:31:18.404Z,13.9
2018-04-19T06:32:25.627Z,14.1
2018-04-19T06:33:32.844Z,14.3
2018-04-19T06:34:40.043Z,14.4
2018-04-19T06:35:47.251Z,14.5
2018-04-19T06:36:54.478Z,14.7
2018-04-19T06:38:01.717Z,14.8
2018-04-19T06:39:08.927Z,14.9
2018-04-19T06:40:16.135Z,15
2018-04-19T06:41:23.345Z,15.1
2018-04-19T06:42:30.547Z,15.2
2018-04-19T06:43:37.794Z,15.3
2018-04-19T06:44:45.002Z,15.4
2018-04-19T06:45:51.937Z,15.6
2018-04-19T06:46:59.142Z,15.8
2018-04-19T06:48:06.352Z,15.9
2018-04-19T06:49:13.566Z,16
2018-04-19T06:50:20.510Z,16.1
2018-04-19T06:51:27.722Z,16.2
2018-04-19T06:52:34.657Z,16.3
2018-04-19T06:53:41.870Z,16.5
2018-04-19T06:54:49.092Z,16.5
2018-04-19T06:55:56.300Z,16.6
2018-04-19T06:57:03.511Z,16.8
2018-04-19T06:58:10.747Z,16.9
2018-04-19T06:59:17.964Z,17.1
2018-04-19T07:00:25.190Z,17.3
2018-04-19T07:01:32.122Z,17.4
2018-04-19T07:02:39.338Z,17.6
2018-04-19T07:03:46.561Z,17.6
2018-04-19T07:04:55.761Z,17.6
2018-04-19T07:06:02.978Z,17.6
2018-04-19T07:07:10.214Z,17.7
2018-04-19T07:08:17.415Z,17.8
2018-04-19T07:09:24.629Z,18.1
2018-04-19T07:10:31.865Z,18.1
2018-04-19T07:11:39.083Z,18.2
2018-04-19T07:12:46.304Z,18.4
2018-04-19T07:13:53.508Z,18.3
2018-04-19T07:15:00.719Z,18.3
2018-04-19T07:16:07.925Z,18.3
2018-04-19T07:17:15.139Z,18.5
2018-04-19T07:18:22.357Z,18.7
2018-04-19T07:19:29.296Z,18.7
2018-04-19T07:20:36.256Z,18.5
2018-04-19T07:21:43.478Z,18.4
2018-04-19T07:22:50.418Z,18.6
2018-04-19T07:23:57.358Z,18.7
2018-04-19T07:25:04.322Z,18.8
2018-04-19T07:26:11.541Z,18.7
2018-04-19T07:27:18.759Z,18.7
2018-04-19T07:28:25.711Z,18.7
2018-04-19T07:29:32.678Z,18.7
2018-04-19T07:30:39.906Z,18.7
2018-04-19T07:31:47.331Z,18.9
2018-04-19T07:32:54.548Z,18.7
2018-04-19T07:34:01.776Z,18.8
2018-04-19T07:35:08.995Z,19
2018-04-19T07:36:15.975Z,19.2
2018-04-19T07:37:23.203Z,19.5
2018-04-19T07:38:30.630Z,19.7
2018-04-19T07:39:37.844Z,19.7
2018-04-19T07:40:45.083Z,19.8
2018-04-19T07:41:52.321Z,20
2018-04-19T07:42:59.571Z,20
2018-04-19T07:44:06.788Z,20.3
2018-04-19T07:45:13.957Z,20.6
2018-04-19T07:46:21.161Z,20.9
2018-04-19T07:47:28.604Z,20.8
2018-04-19T07:48:35.843Z,20.9
2018-04-19T07:49:43.297Z,21.1
2018-04-19T07:50:50.507Z,21.4
2018-04-19T07:51:57.718Z,21.6
2018-04-19T07:53:04.961Z,21.5
2018-04-19T07:54:12.179Z,21.4
2018-04-19T07:55:19.405Z,21.6
2018-04-19T07:56:26.632Z,21.9
2018-04-19T07:57:33.868Z,22.3
2018-04-19T07:58:41.106Z,22.5
2018-04-19T07:59:48.331Z,22.9
2018-04-19T08:00:55.577Z,22.7
2018-04-19T08:02:02.799Z,22.7
2018-04-19T08:03:10.017Z,22.9
2018-04-19T08:04:17.233Z,23.1
2018-04-19T08:05:24.731Z,23.4
2018-04-19T08:06:31.686Z,23.6
2018-04-19T08:07:38.931Z,23.4
2018-04-19T08:08:46.140Z,23.3
2018-04-19T08:09:53.360Z,23
2018-04-19T08:11:00.600Z,23.1
2018-04-19T08:12:07.817Z,23.3
2018-04-19T08:13:15.037Z,23.4
2018-04-19T08:14:22.329Z,23.6
2018-04-19T08:15:29.553Z,23.4
2018-04-19T08:16:37.004Z,23.3
2018-04-19T08:17:43.951Z,23.3
2018-04-19T08:18:51.244Z,23.6
2018-04-19T08:19:58.541Z,23.5
2018-04-19T08:21:05.770Z,23.5
2018-04-19T08:22:12.993Z,23.7
2018-04-19T08:23:20.235Z,23.8
2018-04-19T08:24:27.489Z,24.1
2018-04-19T08:25:34.742Z,24.3
2018-04-19T08:26:41.954Z,24.4
2018-04-19T08:27:49.207Z,24.3
2018-04-19T08:28:56.132Z,24.3
2018-04-19T08:30:03.590Z,24.6
2018-04-19T08:31:10.833Z,24.7
2018-04-19T08:32:18.060Z,24.7
2018-04-19T08:33:25.014Z,24.8
2018-04-19T08:34:31.993Z,24.9
2018-04-19T08:35:39.212Z,24.7
2018-04-19T08:36:46.428Z,24.9
2018-04-19T08:37:53.642Z,25
2018-04-19T08:39:00.881Z,25
2018-04-19T08:40:08.094Z,25.2
2018-04-19T08:41:15.537Z,25.4
2018-04-19T08:42:22.759Z,25.6
2018-04-19T08:43:29.982Z,25.5
2018-04-19T08:44:37.273Z,25.6
2018-04-19T08:45:44.611Z,25.6
2018-04-19T08:46:51.829Z,25.4
2018-04-19T08:47:59.077Z,25.4
2018-04-19T08:49:06.031Z,25
2018-04-19T08:50:13.621Z,25.3
2018-04-19T08:51:20.879Z,25.3
2018-04-19T08:52:28.110Z,25.5
2018-04-19T08:53:35.064Z,25.7
2018-04-19T08:54:42.305Z,25.8
2018-04-19T08:55:49.252Z,25.8
2018-04-19T08:56:56.482Z,25.8
2018-04-19T08:58:03.696Z,25.8
2018-04-19T08:59:10.931Z,25.7
2018-04-19T09:00:18.157Z,25.6
2018-04-19T09:01:25.408Z,25.8
2018-04-19T09:02:32.633Z,26.1
2018-04-19T09:03:39.872Z,25.9
2018-04-19T09:04:46.813Z,25.7
2018-04-19T09:05:54.271Z,25.6
2018-04-19T09:07:01.493Z,25.7
2018-04-19T09:08:08.831Z,25.7
2018-04-19T09:09:16.054Z,25.8
2018-04-19T09:10:23.298Z,25.9
2018-04-19T09:11:30.251Z,26.3
2018-04-19T09:12:37.482Z,26.8
2018-04-19T09:13:44.628Z,27
2018-04-19T09:14:51.622Z,26.8
2018-04-19T09:15:58.868Z,26.7
2018-04-19T09:17:06.096Z,26.5
2018-04-19T09:18:13.048Z,26.2
2018-04-19T09:19:20.267Z,26
2018-04-19T09:20:27.224Z,25.9
2018-04-19T09:21:34.187Z,25.7
2018-04-19T09:22:41.431Z,25.7
2018-04-19T09:23:48.644Z,25.8
2018-04-19T09:24:55.857Z,25.7
2018-04-19T09:26:02.795Z,25.8
2018-04-19T09:27:10.024Z,26
2018-04-19T09:28:17.009Z,26.2
2018-04-19T09:29:24.235Z,26.5
2018-04-19T09:30:31.446Z,26.3
2018-04-19T09:31:38.668Z,26.3
2018-04-19T09:32:45.883Z,26.3
2018-04-19T09:33:53.103Z,26.3
2018-04-19T09:35:00.057Z,26.3
2018-04-19T09:36:07.267Z,26.3
2018-04-19T09:37:14.490Z,26.2
2018-04-19T09:38:21.723Z,26.3
2018-04-19T09:39:28.989Z,26.4
2018-04-19T09:40:36.272Z,26.5
2018-04-19T09:41:43.497Z,26.7
2018-04-19T09:42:50.728Z,26.7
2018-04-19T09:43:57.957Z,26.9
2018-04-19T09:45:04.904Z,27.1
2018-04-19T09:46:12.126Z,27
2018-04-19T09:47:19.345Z,26.8
2018-04-19T09:48:26.301Z,26.9
2018-04-19T09:49:33.524Z,27.1
2018-04-19T09:50:40.740Z,27.2
2018-04-19T09:51:47.961Z,27.3
2018-04-19T09:52:55.204Z,27.2
2018-04-19T09:54:02.763Z,27
2018-04-19T09:55:10.523Z,27
2018-04-19T09:56:17.746Z,27.2
2018-04-19T09:57:24.696Z,27.3
2018-04-19T09:58:31.989Z,27.5
2018-04-19T09:59:39.245Z,27.3
2018-04-19T10:00:46.426Z,27.2
2018-04-19T10:01:53.645Z,27.1
2018-04-19T10:03:00.887Z,26.9
2018-04-19T10:04:08.126Z,27.2
2018-04-19T10:05:15.443Z,27.3
2018-04-19T10:06:22.395Z,27.1
2018-04-19T10:07:29.619Z,27
2018-04-19T10:08:36.852Z,27
2018-04-19T10:09:44.077Z,27
2018-04-19T10:10:51.025Z,27
2018-04-19T10:11:58.248Z,27
2018-04-19T10:13:05.507Z,27.1
2018-04-19T10:14:12.744Z,26.8
2018-04-19T10:15:19.966Z,26.8
2018-04-19T10:16:27.204Z,26.9
2018-04-19T10:17:34.423Z,27.2
2018-04-19T10:18:41.381Z,27.2
2018-04-19T10:19:48.603Z,27.4
2018-04-19T10:20:55.821Z,27.3
2018-04-19T10:22:03.050Z,27.5
2018-04-19T10:23:10.268Z,27.6
2018-04-19T10:24:17.500Z,27.5
2018-04-19T10:25:24.739Z,27.6
2018-04-19T10:26:31.968Z,27.6
2018-04-19T10:27:38.641Z,27.5
2018-04-19T10:28:45.865Z,27.5
2018-04-19T10:29:53.113Z,27.5
2018-04-19T10:31:00.334Z,27.5
2018-04-19T10:32:07.553Z,27.4
2018-04-19T10:33:14.776Z,27.3
2018-04-19T10:34:21.744Z,27.2
2018-04-19T10:35:28.974Z,27.3
2018-04-19T10:36:36.213Z,27.3
2018-04-19T10:37:43.433Z,27.3
2018-04-19T10:38:50.655Z,27.7
2018-04-19T10:39:57.889Z,28
2018-04-19T10:41:04.844Z,28.3
2018-04-19T10:42:12.067Z,28.3
2018-04-19T10:43:19.305Z,28.2
2018-04-19T10:44:26.541Z,28.1
2018-04-19T10:45:33.759Z,28.2
2018-04-19T10:46:40.980Z,28.4
2018-04-19T10:47:48.223Z,28.5
2018-04-19T10:48:55.448Z,28.6
2018-04-19T10:50:02.676Z,28.5
2018-04-19T10:51:09.908Z,28.5
2018-04-19T10:52:17.120Z,28.4
2018-04-19T10:53:24.355Z,28.3
2018-04-19T10:54:31.577Z,28.5
2018-04-19T10:55:39.021Z,28.6
2018-04-19T10:56:46.240Z,28.7
2018-04-19T10:57:53.462Z,28.7
2018-04-19T10:59:00.685Z,28.6
2018-04-19T11:00:07.642Z,28.8
2018-04-19T11:01:14.870Z,28.9
2018-04-19T11:02:22.131Z,29
2018-04-19T11:03:29.349Z,28.9
2018-04-19T11:04:36.578Z,28.8
2018-04-19T11:05:43.802Z,28.6
2018-04-19T11:06:51.022Z,28.2
2018-04-19T11:07:57.702Z,28.2
2018-04-19T11:09:04.922Z,28.3
2018-04-19T11:10:11.988Z,28.5
2018-04-19T11:11:19.287Z,28.5
2018-04-19T11:12:26.727Z,28.4
2018-04-19T11:13:33.951Z,27.5
2018-04-19T11:14:40.888Z,27.2
2018-04-19T11:15:47.855Z,27.5
2018-04-19T11:16:55.083Z,28.1
2018-04-19T11:18:02.309Z,28.7
2018-04-19T11:19:09.305Z,29
2018-04-19T11:20:16.528Z,29.2
2018-04-19T11:21:23.750Z,29.1
2018-04-19T11:22:31.079Z,29.2
2018-04-19T11:23:38.411Z,28.7
2018-04-19T11:24:45.630Z,28.9
2018-04-19T11:25:52.583Z,29
2018-04-19T11:26:59.809Z,29.2
2018-04-19T11:28:07.024Z,29.5
2018-04-19T11:29:14.251Z,29.3
2018-04-19T11:30:21.477Z,29.4
2018-04-19T11:31:28.435Z,29.3
2018-04-19T11:32:35.665Z,29.4
2018-04-19T11:33:42.888Z,29.5
2018-04-19T11:34:50.109Z,29.6
2018-04-19T11:35:57.076Z,29.4
2018-04-19T11:37:04.345Z,29.6
2018-04-19T11:38:11.621Z,29.6
2018-04-19T11:39:18.865Z,29.8
2018-04-19T11:40:26.085Z,30
2018-04-19T11:41:33.054Z,29.7
2018-04-19T11:42:40.280Z,29.7
2018-04-19T11:43:47.499Z,29.6
2018-04-19T11:44:54.726Z,29.5
2018-04-19T11:46:01.947Z,29.3
2018-04-19T11:47:09.230Z,29.5
2018-04-19T11:48:16.447Z,29.7
2018-04-19T11:49:23.426Z,29.6
2018-04-19T11:50:30.380Z,29.5
2018-04-19T11:51:37.407Z,29.6
2018-04-19T11:52:44.635Z,29.9
2018-04-19T11:53:51.870Z,29.7
2018-04-19T11:54:59.098Z,29.8
2018-04-19T11:56:06.345Z,30
2018-04-19T11:57:13.565Z,29.8
2018-04-19T11:58:20.792Z,29.4
2018-04-19T11:59:28.025Z,29.4
2018-04-19T12:00:35.249Z,29.2
2018-04-19T12:01:42.470Z,29.3
2018-04-19T12:02:49.692Z,29.1
2018-04-19T12:03:56.923Z,29.4
2018-04-19T12:05:04.151Z,29.7
2018-04-19T12:06:11.417Z,30
2018-04-19T12:07:18.635Z,29.7
2018-04-19T12:08:25.580Z,29.6
2018-04-19T12:09:32.538Z,29.5
2018-04-19T12:10:39.763Z,29.4
2018-04-19T12:11:46.997Z,29.6
2018-04-19T12:12:54.229Z,29.3
2018-04-19T12:14:01.463Z,29.3
2018-04-19T12:15:08.427Z,29.4
2018-04-19T12:16:15.709Z,29.8
2018-04-19T12:17:22.654Z,30.1
2018-04-19T12:18:29.343Z,30.5
2018-04-19T12:19:36.565Z,30.5
2018-04-19T12:20:43.788Z,30.3
2018-04-19T12:21:51.007Z,30.2
2018-04-19T12:22:58.228Z,30.5
2018-04-19T12:24:05.451Z,30.9
2018-04-19T12:25:12.673Z,31.3
2018-04-19T12:26:19.899Z,30.7
2018-04-19T12:27:26.845Z,30.5
2018-04-19T12:28:34.068Z,30.5
2018-04-19T12:29:41.017Z,30.1
2018-04-19T12:30:48.239Z,30.2
2018-04-19T12:31:55.461Z,30.4
2018-04-19T12:33:02.683Z,30.7
2018-04-19T12:34:09.632Z,31
2018-04-19T12:35:16.859Z,31.4
2018-04-19T12:36:24.080Z,31.5
2018-04-19T12:37:31.441Z,31.1
2018-04-19T12:38:38.914Z,30.9
2018-04-19T12:39:46.136Z,30.8
2018-04-19T12:40:53.397Z,31.1
2018-04-19T12:42:00.618Z,31.2
2018-04-19T12:43:07.836Z,31.1
2018-04-19T12:44:15.066Z,31.3
2018-04-19T12:45:22.283Z,31.4
2018-04-19T12:46:29.198Z,31.4
2018-04-19T12:47:36.446Z,31.3
2018-04-19T12:48:43.664Z,30.7
2018-04-19T12:49:50.881Z,30.9
2018-04-19T12:50:58.110Z,31.2
2018-04-19T22:00:06.282Z,14.9
2018-04-19T22:01:13.485Z,15
2018-04-19T22:02:20.692Z,14.9
2018-04-19T22:03:27.894Z,14.9
2018-04-19T22:04:35.096Z,14.9
2018-04-19T22:05:42.052Z,15.1
2018-04-19T22:06:49.260Z,15.2
2018-04-19T22:07:56.464Z,15.3
2018-04-19T22:09:03.673Z,15.3
2018-04-19T22:10:10.880Z,15.5
2018-04-19T22:11:18.088Z,15.5
2018-04-19T22:12:25.296Z,15.4
2018-04-19T22:13:32.502Z,15.5
2018-04-19T22:14:39.436Z,15.4
2018-04-19T22:15:46.698Z,15.5
2018-04-19T22:16:53.901Z,15.5
2018-04-19T22:18:01.105Z,15.4
2018-04-19T22:19:08.319Z,15.3
2018-04-19T22:20:15.521Z,15.2
2018-04-19T22:21:22.728Z,15.2
2018-04-19T22:22:29.934Z,15.2
2018-04-19T22:23:37.137Z,15.1
2018-04-19T22:24:44.349Z,15.1
2018-04-19T22:25:51.556Z,15
2018-04-19T22:26:58.763Z,15
2018-04-19T22:28:05.971Z,14.9
2018-04-19T22:29:13.175Z,14.9
2018-04-19T22:30:20.392Z,14.8
2018-04-19T22:31:27.323Z,14.8
2018-04-19T22:32:34.287Z,14.8
2018-04-19T22:33:41.486Z,14.7
2018-04-19T22:34:48.427Z,14.6
2018-04-19T22:35:55.635Z,14.6
2018-04-19T22:37:02.844Z,14.6
2018-04-19T22:38:10.043Z,14.5
2018-04-19T22:39:17.255Z,14.4
2018-04-19T22:40:24.460Z,14.4
2018-04-19T22:41:31.738Z,14.3
2018-04-19T22:42:38.949Z,14.2
2018-04-19T22:43:46.157Z,14.1
2018-04-19T22:44:53.366Z,14.2
2018-04-19T22:46:00.620Z,14.2
2018-04-19T22:47:07.833Z,14.2
2018-04-19T22:48:15.043Z,14.2
2018-04-19T22:49:22.245Z,14.2
2018-04-19T22:50:29.454Z,14.1
2018-04-19T22:51:36.656Z,14.2
2018-04-19T22:52:43.861Z,14.2
2018-04-19T22:53:51.064Z,14.2
2018-04-19T22:54:58.273Z,14.2
2018-04-19T22:56:05.475Z,14.1
2018-04-19T22:57:12.408Z,14.1
2018-04-19T22:58:19.613Z,14.1
2018-04-19T22:59:26.852Z,13.9
2018-04-19T23:00:34.056Z,13.8
2018-04-19T23:01:41.255Z,13.8
2018-04-19T23:02:48.466Z,13.8
2018-04-19T23:03:55.702Z,13.7
2018-04-19T23:05:02.905Z,13.7
2018-04-19T23:06:10.108Z,13.6
2018-04-19T23:07:17.350Z,13.5
2018-04-19T23:08:24.556Z,13.5
2018-04-19T23:09:31.762Z,13.5
2018-04-19T23:10:38.701Z,13.5
2018-04-19T23:11:45.905Z,13.4
2018-04-19T23:12:53.113Z,13.4
2018-04-19T23:14:00.314Z,13.3
2018-04-19T23:15:07.522Z,13.3
2018-04-19T23:16:14.726Z,13.3
2018-04-19T23:17:21.935Z,13.2
2018-04-19T23:18:29.142Z,13.2
2018-04-19T23:19:36.348Z,13.2
2018-04-19T23:20:43.556Z,13.1
2018-04-19T23:21:50.761Z,13.1
2018-04-19T23:22:57.694Z,13
2018-04-19T23:24:04.898Z,13
2018-04-19T23:25:12.108Z,13
2018-04-19T23:26:19.314Z,13
2018-04-19T23:27:26.524Z,12.9
2018-04-19T23:28:33.730Z,12.9
2018-04-19T23:29:40.930Z,12.8
2018-04-19T23:30:48.137Z,12.7
2018-04-19T23:31:55.341Z,12.7
2018-04-19T23:33:02.549Z,12.7
2018-04-19T23:34:09.756Z,12.7
2018-04-19T23:35:16.967Z,12.6
2018-04-19T23:36:24.165Z,12.6
2018-04-19T23:37:31.517Z,12.6
2018-04-19T23:38:38.783Z,12.6
2018-04-19T23:39:45.718Z,12.5
2018-04-19T23:40:52.923Z,12.5
2018-04-19T23:42:00.129Z,12.5
2018-04-19T23:43:07.344Z,12.5
2018-04-19T23:44:29.190Z,12.4
2018-04-19T23:45:36.432Z,12.4
2018-04-19T23:46:43.640Z,12.3
2018-04-19T23:47:50.847Z,12.3
2018-04-19T23:48:57.781Z,12.2
2018-04-19T23:50:04.708Z,12.3
2018-04-19T23:51:11.913Z,12.2
2018-04-19T23:52:19.116Z,12.2
2018-04-19T23:53:26.325Z,12.2
2018-04-19T23:54:33.539Z,12.2
2018-04-19T23:55:40.745Z,12.1
2018-04-19T23:56:47.678Z,12.1
2018-04-19T23:57:54.615Z,12.1
2018-04-19T23:59:01.833Z,12.1
